Time;durP1;ratioP1;P1;durP2;ratioP2;P2;SDS_P1;SDS_P2;PMS_P1;PMS_P2;Temp;Humidity;BMP_temperature;BMP_pressure;BME280_temperature;BME280_humidity;BME280_pressure;Samples;Min_cycle;Max_cycle;Signal;HPM_P1;HPM_P2
2021/12/14 00:01:20;;;;;;;9.97;7.43;;;;;;;3.50;71.52;99997.14;1736474;82;21006;-40
2021/12/14 00:03:50;;;;;;;12.30;8.50;;;;;;;3.45;71.52;100003.40;1745568;82;21033;-40
2021/12/14 00:06:19;;;;;;;11.10;8.55;;;;;;;3.42;71.58;100001.86;1745407;82;22148;-40
2021/12/14 00:08:57;;;;;;;14.33;8.18;;;;;;;3.41;71.48;100004.28;1745760;82;21690;-40
2021/12/14 00:16:44;;;;;;;11.70;9.35;;;;;;;3.46;71.56;100005.53;1686659;82;21111;-40
2021/12/14 00:19:11;;;;;;;13.20;9.20;;;;;;;3.45;71.50;100008.75;1745474;82;21514;-40
2021/12/14 00:21:38;;;;;;;13.05;8.58;;;;;;;3.44;71.52;100010.38;1745364;82;20914;-41
2021/12/14 00:24:14;;;;;;;11.75;8.15;;;;;;;3.43;71.52;100014.18;1745392;82;21042;-40
2021/12/14 00:26:43;;;;;;;10.48;8.08;;;;;;;3.45;71.51;100003.40;1737751;82;21022;-40
2021/12/14 00:29:19;;;;;;;11.97;8.53;;;;;;;3.50;71.39;100010.00;1745458;82;21478;-40
2021/12/14 00:31:46;;;;;;;12.03;8.93;;;;;;;3.54;71.46;100003.50;1745353;82;21535;-40
2021/12/14 00:34:22;;;;;;;13.93;9.55;;;;;;;3.52;71.53;100003.56;1745564;81;21347;-40
2021/12/14 00:36:42;;;;;;;12.88;9.35;;;;;;;3.55;71.57;100003.75;1744506;82;20973;-40
2021/12/14 00:39:09;;;;;;;14.73;9.75;;;;;;;3.53;71.48;100003.27;1745302;82;21013;-40
2021/12/14 00:41:38;;;;;;;12.03;9.63;;;;;;;3.15;71.54;99948.25;1745371;82;21037;-40
2021/12/14 00:44:05;;;;;;;13.00;9.33;;;;;;;3.46;71.67;100003.66;1745462;82;21191;-40
2021/12/14 00:46:35;;;;;;;13.75;9.30;;;;;;;3.47;71.65;100001.23;1745374;82;20957;-40
2021/12/14 00:49:05;;;;;;;13.08;9.08;;;;;;;3.54;71.66;100007.52;1745333;82;20965;-41
2021/12/14 00:51:32;;;;;;;12.35;9.38;;;;;;;3.56;71.54;100002.67;1745792;81;20949;-40
2021/12/14 00:54:01;;;;;;;12.95;9.05;;;;;;;3.52;71.48;99999.54;1745482;82;21041;-40
2021/12/14 00:56:28;;;;;;;13.47;9.93;;;;;;;3.49;71.61;99999.03;1745948;82;21795;-40
2021/12/14 00:58:55;;;;;;;13.83;10.30;;;;;;;3.51;71.58;100001.42;1745545;82;21077;-40
2021/12/14 01:01:29;;;;;;;14.83;10.45;;;;;;;3.50;71.71;100005.98;1745689;82;21024;-40
2021/12/14 01:04:01;;;;;;;14.10;9.58;;;;;;;3.55;71.57;100013.68;1745518;82;21088;-40
2021/12/14 01:06:32;;;;;;;13.15;9.90;;;;;;;3.57;71.43;100010.17;1745739;81;21040;-40
2021/12/14 01:09:01;;;;;;;13.50;9.35;;;;;;;3.57;71.47;100014.98;1745651;82;21157;-40
2021/12/14 01:11:34;;;;;;;13.70;10.15;;;;;;;3.57;71.52;100015.53;1745763;81;20906;-40
2021/12/14 01:14:12;;;;;;;15.58;10.55;;;;;;;3.54;71.50;100015.56;1745417;82;20992;-40
2021/12/14 01:16:53;;;;;;;13.88;10.70;;;;;;;3.53;71.65;100018.55;1745320;82;21055;-40
2021/12/14 01:19:27;;;;;;;13.65;9.93;;;;;;;3.53;71.70;100015.88;1745681;82;21088;-40
2021/12/14 01:27:09;;;;;;;13.22;8.93;;;;;;;3.66;71.51;100015.09;1735231;82;21048;-40
2021/12/14 01:29:37;;;;;;;11.90;8.98;;;;;;;3.65;71.40;100018.30;1745449;82;21021;-40
2021/12/14 01:32:06;;;;;;;11.12;8.83;;;;;;;3.62;71.39;100011.41;1745924;81;21076;-40
2021/12/14 01:34:32;;;;;;;11.55;9.13;;;;;;;3.60;71.47;100011.70;1745838;81;21915;-40
2021/12/14 01:37:04;;;;;;;11.15;8.78;;;;;;;3.58;71.44;100019.27;1745625;82;21085;-40
2021/12/14 01:40:00;;;;;;;9.53;7.28;;;;;;;3.54;71.30;100016.90;1716290;82;21539;-40
2021/12/14 01:42:21;;;;;;;9.23;6.95;;;;;;;3.52;71.42;100019.64;1743122;82;21017;-40
2021/12/14 01:45:09;;;;;;;9.65;7.62;;;;;;;3.56;71.43;100020.09;1745650;82;21809;-40
2021/12/14 01:47:42;;;;;;;9.18;8.05;;;;;;;3.60;71.48;100018.41;1746029;82;21128;-40
2021/12/14 01:50:31;;;;;;;10.60;8.05;;;;;;;3.63;71.56;100025.07;1742095;82;21081;-40
2021/12/14 01:53:13;;;;;;;11.57;8.53;;;;;;;3.66;71.59;100021.25;1743242;82;21503;-40
2021/12/14 01:55:43;;;;;;;10.13;7.87;;;;;;;3.63;71.48;100019.14;1745757;81;21357;-40
2021/12/14 01:58:10;;;;;;;11.03;6.87;;;;;;;3.62;71.34;100016.77;1746180;82;21570;-40
2021/12/14 02:00:45;;;;;;;9.33;6.75;;;;;;;3.61;71.21;100017.86;1745667;82;21165;-40
2021/12/14 02:03:14;;;;;;;8.48;6.90;;;;;;;3.63;70.99;100017.80;1745936;82;20929;-40
2021/12/14 02:05:47;;;;;;;8.78;7.05;;;;;;;3.62;71.05;100022.94;1745647;82;20993;-40
2021/12/14 02:08:19;;;;;;;9.98;7.58;;;;;;;3.59;71.11;100027.53;1745943;82;21049;-40
2021/12/14 02:10:47;;;;;;;8.98;7.20;;;;;;;3.56;71.18;100023.31;1745551;82;20997;-40
2021/12/14 02:13:23;;;;;;;9.75;6.90;;;;;;;3.53;71.29;100022.58;1746040;82;21119;-40
2021/12/14 02:15:51;;;;;;;9.33;7.17;;;;;;;3.47;71.15;100019.99;1716244;82;21067;-40
2021/12/14 02:18:22;;;;;;;9.75;6.72;;;;;;;3.44;71.34;100015.74;1746118;82;20985;-40
2021/12/14 02:21:02;;;;;;;8.45;6.80;;;;;;;3.51;71.55;100013.48;1745875;81;21080;-40
2021/12/14 02:23:29;;;;;;;9.33;7.30;;;;;;;3.59;71.46;100012.78;1746160;81;21065;-40
2021/12/14 02:25:59;;;;;;;9.85;7.15;;;;;;;3.59;71.44;100008.77;1745736;82;21825;-40
2021/12/14 02:28:26;;;;;;;8.25;7.30;;;;;;;3.58;71.49;100015.78;1746036;82;21650;-41
2021/12/14 02:30:55;;;;;;;11.08;7.42;;;;;;;3.59;71.37;100006.63;1745773;82;21080;-40
2021/12/14 02:33:29;;;;;;;9.03;7.12;;;;;;;3.56;71.41;100021.43;1746207;82;21017;-40
2021/12/14 02:35:55;;;;;;;8.68;6.80;;;;;;;3.56;71.41;100021.43;1745573;82;21073;-40
2021/12/14 02:38:22;;;;;;;7.78;6.03;;;;;;;3.57;71.26;100012.30;1746052;82;21112;-40
2021/12/14 02:40:53;;;;;;;8.70;6.25;;;;;;;3.62;71.16;100015.44;1745689;82;20969;-40
2021/12/14 02:43:27;;;;;;;10.35;7.08;;;;;;;3.65;71.15;100018.85;1745927;82;21061;-40
2021/12/14 02:46:08;;;;;;;7.95;6.20;;;;;;;3.65;71.18;100022.33;1743965;82;21018;-40
2021/12/14 02:48:36;;;;;;;7.62;6.35;;;;;;;3.64;71.14;100027.98;1745705;82;21515;-40
2021/12/14 02:51:08;;;;;;;9.20;6.90;;;;;;;3.62;71.13;100028.30;1745703;82;21112;-40
2021/12/14 02:53:36;;;;;;;9.63;8.00;;;;;;;3.56;71.02;100023.31;1746227;82;21808;-40
2021/12/14 02:56:14;;;;;;;8.73;6.80;;;;;;;3.47;71.23;100024.02;1745705;82;21507;-40
2021/12/14 02:58:42;;;;;;;9.18;6.65;;;;;;;3.47;71.22;100028.58;1745619;81;21036;-40
2021/12/14 03:01:09;;;;;;;8.68;6.50;;;;;;;3.50;71.34;100031.99;1745789;81;21080;-40
2021/12/14 03:03:36;;;;;;;11.25;7.20;;;;;;;3.50;71.36;100027.43;1745857;82;21791;-40
2021/12/14 03:06:05;;;;;;;9.28;6.80;;;;;;;3.50;71.54;100025.29;1745650;82;20961;-40
2021/12/14 03:08:37;;;;;;;8.30;6.95;;;;;;;3.53;71.57;100026.06;1745806;82;21021;-40
2021/12/14 03:11:10;;;;;;;6.80;5.40;;;;;;;3.54;71.56;100023.60;1745562;82;21033;-40
2021/12/14 03:13:43;;;;;;;9.00;6.62;;;;;;;3.54;71.48;100025.48;1745735;81;21040;-40
2021/12/14 03:16:18;;;;;;;9.00;6.03;;;;;;;3.53;71.50;100022.58;1745627;82;21283;-40
2021/12/14 03:18:47;;;;;;;8.73;5.87;;;;;;;3.52;71.49;100022.32;1737460;82;21036;-40
2021/12/14 03:21:19;;;;;;;7.07;5.63;;;;;;;3.61;71.31;100021.34;1746104;82;21511;-40
2021/12/14 03:23:49;;;;;;;9.88;6.92;;;;;;;3.61;71.31;100021.34;1745606;81;20965;-40
2021/12/14 03:26:22;;;;;;;8.38;6.22;;;;;;;3.62;71.43;100022.94;1745799;82;21028;-40
2021/12/14 03:28:52;;;;;;;7.90;6.35;;;;;;;3.64;71.34;100027.98;1745914;82;21083;-40
2021/12/14 03:31:32;;;;;;;6.58;5.50;;;;;;;3.60;71.17;100023.77;1745691;82;21019;-40
2021/12/14 03:34:14;;;;;;;7.65;6.00;;;;;;;3.57;71.27;100017.66;1745728;81;20970;-40
2021/12/14 03:36:51;;;;;;;6.60;5.37;;;;;;;3.54;71.20;100028.96;1745626;82;21069;-40
2021/12/14 03:39:22;;;;;;;7.62;5.60;;;;;;;3.49;71.08;100024.49;1745967;82;21052;-40
2021/12/14 03:41:57;;;;;;;6.65;5.53;;;;;;;3.53;71.22;100019.36;1745673;81;21092;-40
2021/12/14 03:44:35;;;;;;;8.00;6.40;;;;;;;3.55;71.07;100023.86;1745918;82;21006;-40
2021/12/14 03:47:09;;;;;;;8.28;6.33;;;;;;;3.54;71.18;100023.60;1745672;81;21080;-40
2021/12/14 03:49:42;;;;;;;8.85;6.05;;;;;;;3.54;71.25;100030.30;1745465;82;21005;-40
2021/12/14 03:52:13;;;;;;;7.90;6.78;;;;;;;3.55;71.29;100026.54;1745454;82;21053;-40
2021/12/14 03:54:40;;;;;;;7.72;6.55;;;;;;;3.54;71.26;100031.64;1739863;82;21610;-40
2021/12/14 03:57:08;;;;;;;7.70;5.97;;;;;;;3.54;71.16;100034.87;1745709;82;20894;-40
2021/12/14 03:59:35;;;;;;;8.73;6.30;;;;;;;3.58;71.09;100029.98;1745740;82;20977;-40
2021/12/14 04:02:05;;;;;;;8.95;6.60;;;;;;;3.62;70.99;100032.32;1745489;82;20981;-40
2021/12/14 04:04:36;;;;;;;;;;;;;;;3.62;70.96;100038.22;1748323;82;21088;-40
2021/12/14 04:07:06;;;;;;;11.33;7.90;;;;;;;3.64;70.97;100038.16;1745695;81;21098;-40
2021/12/14 04:09:37;;;;;;;11.03;8.40;;;;;;;3.56;71.22;100040.20;1745642;82;21096;-40
2021/12/14 04:12:08;;;;;;;9.73;7.78;;;;;;;3.57;70.96;100040.45;1745769;82;20942;-40
2021/12/14 04:14:41;;;;;;;10.93;8.18;;;;;;;3.53;70.88;100042.14;1745418;82;20985;-40
2021/12/14 04:17:09;;;;;;;10.00;7.28;;;;;;;3.52;70.90;100045.11;1745557;82;21041;-40
2021/12/14 04:19:36;;;;;;;9.38;7.20;;;;;;;3.54;70.80;100041.03;1745756;82;21128;-40
2021/12/14 04:22:12;;;;;;;9.90;7.45;;;;;;;3.61;70.79;100046.02;1745848;82;20969;-40
2021/12/14 04:24:40;;;;;;;10.20;8.53;;;;;;;3.62;70.80;100044.38;1745816;82;21047;-40
2021/12/14 04:27:11;;;;;;;10.38;7.90;;;;;;;3.62;70.83;100048.41;1745851;82;21061;-40
2021/12/14 04:29:38;;;;;;;10.82;8.43;;;;;;;3.63;70.65;100045.18;1745751;82;21377;-40
2021/12/14 04:32:08;;;;;;;13.03;9.30;;;;;;;3.23;70.66;99997.12;1745536;82;21144;-40
2021/12/14 04:34:35;;;;;;;;;;;;;;;3.52;70.58;100047.79;1727770;82;20961;-40
2021/12/14 04:37:03;;;;;;;;;;;;;;;3.49;70.66;100042.45;1748335;82;20166;-40
2021/12/14 04:53:27;;;;;;;;;;;;;;;3.21;71.60;100058.23;1750862;82;20273;-40
2021/12/14 04:55:55;;;;;;;;;;;;;;;3.10;71.73;100061.61;1750698;82;20504;-39
2021/12/14 04:58:28;;;;;;;;;;;;;;;3.04;71.98;100064.14;1750637;82;21495;-40
2021/12/14 05:00:55;;;;;;;;;;;;;;;3.05;71.99;100067.85;1750648;81;20090;-40
2021/12/14 05:05:14;;;;;;;8.68;7.08;;;;;;;3.21;71.99;100064.92;1829116;78;22582;-39
2021/12/14 05:10:19;;;;;;;9.18;7.33;;;;;;;3.23;71.99;100071.59;1772711;79;21129;-40
2021/12/14 05:12:47;;;;;;;9.85;7.65;;;;;;;3.19;72.12;100065.24;1802233;79;20963;-40
2021/12/14 05:15:16;;;;;;;9.80;7.23;;;;;;;3.27;72.00;100075.82;1802241;79;20970;-39
2021/12/14 05:17:49;;;;;;;9.70;7.40;;;;;;;3.31;71.72;100078.16;1802185;79;21055;-39
2021/12/14 05:20:16;;;;;;;9.75;6.65;;;;;;;3.28;71.63;100078.22;1802198;79;20958;-39
2021/12/14 05:22:44;;;;;;;8.13;6.67;;;;;;;3.30;71.60;100083.27;1802369;79;21118;-39
2021/12/14 05:25:25;;;;;;;9.65;6.70;;;;;;;3.38;71.54;100079.94;1802333;79;20954;-39
2021/12/14 05:27:57;;;;;;;9.80;7.12;;;;;;;3.47;71.46;100087.00;1802412;79;20994;-39
2021/12/14 05:30:34;;;;;;;9.20;7.50;;;;;;;3.50;71.38;100081.58;1802280;79;21078;-39
2021/12/14 05:33:19;;;;;;;9.53;7.47;;;;;;;3.53;71.27;100088.26;1786518;79;21081;-40
2021/12/14 05:35:48;;;;;;;9.78;7.55;;;;;;;3.50;71.17;100090.97;1771220;79;21096;-40
2021/12/14 05:38:22;;;;;;;9.40;6.83;;;;;;;3.48;71.08;100094.50;1802097;79;21599;-39
2021/12/14 05:43:23;;;;;;;9.73;5.92;;;;;;;3.49;71.05;100090.71;1802328;79;21090;-39
2021/12/14 05:45:58;;;;;;;9.60;6.33;;;;;;;3.54;70.86;100090.63;1797867;79;21789;-40
2021/12/14 05:48:30;;;;;;;10.03;5.78;;;;;;;3.58;70.78;100091.65;1802375;79;21515;-40
2021/12/14 05:51:02;;;;;;;8.98;6.25;;;;;;;3.56;70.77;100095.16;1802445;79;21011;-39
2021/12/14 05:53:42;;;;;;;8.88;6.78;;;;;;;3.52;70.71;100086.12;1794165;79;20981;-39
2021/12/14 05:56:19;;;;;;;8.38;6.40;;;;;;;3.49;70.79;100094.73;1777896;80;21597;-40
2021/12/14 05:58:47;;;;;;;8.70;6.60;;;;;;;3.44;70.81;100095.61;1777674;80;21525;-40
2021/12/14 06:01:18;;;;;;;8.40;6.33;;;;;;;3.38;70.84;100100.03;1771829;79;21143;-40
2021/12/14 06:03:57;;;;;;;8.60;5.92;;;;;;;3.36;70.90;100096.84;1769682;80;20942;-40
2021/12/14 06:06:29;;;;;;;6.90;5.60;;;;;;;3.42;70.88;100098.35;1765717;81;20965;-40
2021/12/14 06:09:11;;;;;;;7.35;6.25;;;;;;;3.42;70.82;100101.83;1793993;78;21550;-39
2021/12/14 06:11:40;;;;;;;8.33;5.97;;;;;;;3.39;70.95;100101.59;1768900;78;21005;-40
2021/12/14 06:14:25;;;;;;;7.47;6.15;;;;;;;3.37;71.12;100105.13;1768029;81;21115;-39
2021/12/14 06:17:02;;;;;;;7.80;6.35;;;;;;;3.37;71.12;100101.91;1767738;81;21057;-40
2021/12/14 06:19:34;;;;;;;8.70;6.20;;;;;;;3.33;71.13;100106.81;1767575;81;20993;-40
2021/12/14 06:22:05;;;;;;;9.33;6.15;;;;;;;3.28;71.33;100105.55;1737621;81;21029;-40
2021/12/14 06:24:35;;;;;;;7.22;5.42;;;;;;;3.31;71.19;100114.34;1767595;81;21076;-39
2021/12/14 06:27:05;;;;;;;8.75;5.70;;;;;;;3.33;71.12;100105.47;1767723;81;21069;-40
2021/12/14 06:29:43;;;;;;;7.77;6.00;;;;;;;3.35;71.17;100109.98;1767734;81;20918;-40
2021/12/14 06:32:16;;;;;;;7.67;5.53;;;;;;;3.32;71.27;100108.70;1767585;80;21577;-39
2021/12/14 06:34:47;;;;;;;8.53;6.50;;;;;;;3.32;71.51;100115.94;1767452;81;21088;-40
2021/12/14 06:40:20;;;;;;;9.88;6.50;;;;;;;3.32;71.44;100115.39;1767447;81;21119;-39
2021/12/14 06:42:55;;;;;;;9.05;5.50;;;;;;;3.27;71.44;100108.77;1767413;81;21017;-39
2021/12/14 06:45:32;;;;;;;8.15;5.78;;;;;;;3.22;71.38;100112.08;1767591;81;21523;-39
2021/12/14 06:48:05;;;;;;;8.13;6.40;;;;;;;3.23;71.60;100112.34;1767702;81;21048;-40
2021/12/14 06:50:42;;;;;;;8.53;6.22;;;;;;;3.25;71.64;100110.94;1767598;80;20969;-40
2021/12/14 06:53:14;;;;;;;8.75;6.42;;;;;;;3.27;71.74;100117.36;1767674;81;21829;-39
2021/12/14 06:56:00;;;;;;;10.18;6.70;;;;;;;3.28;71.64;100113.59;1622777;86;21090;-39
2021/12/14 06:58:59;;;;;;;8.08;6.40;;;;;;;3.25;71.62;100120.31;1740120;81;20993;-39
2021/12/14 07:01:35;;;;;;;9.43;6.33;;;;;;;3.24;71.58;100123.31;1769888;78;21131;-39
2021/12/14 07:04:12;;;;;;;8.38;6.00;;;;;;;3.24;71.68;100122.77;1767604;81;20937;-40
2021/12/14 07:06:46;;;;;;;9.30;6.65;;;;;;;3.32;71.58;100126.11;1767381;81;22163;-40
2021/12/14 07:09:17;;;;;;;8.40;7.00;;;;;;;3.39;71.65;100125.72;1767659;80;20996;-39
2021/12/14 07:11:49;;;;;;;10.38;6.95;;;;;;;3.43;71.56;100124.87;1767581;81;20965;-39
2021/12/14 07:14:34;;;;;;;9.33;7.25;;;;;;;3.45;71.40;100128.03;1758443;80;21076;-40
2021/12/14 07:17:18;;;;;;;8.38;6.97;;;;;;;3.46;71.39;100128.84;1767532;81;21506;-39
2021/12/14 07:19:49;;;;;;;9.53;7.00;;;;;;;3.47;71.40;100135.80;1767323;81;21072;-40
2021/12/14 07:22:42;;;;;;;8.30;7.20;;;;;;;3.48;71.28;100136.05;1767595;80;21622;-40
2021/12/14 07:25:32;;;;;;;9.38;7.30;;;;;;;3.49;71.35;100129.58;1767612;80;21503;-40
2021/12/14 07:28:12;;;;;;;9.48;8.05;;;;;;;3.57;71.06;100130.81;1767345;81;20998;-39
2021/12/14 07:30:48;;;;;;;10.82;7.70;;;;;;;3.60;71.09;100128.33;1790896;78;21084;-39
2021/12/14 07:33:24;;;;;;;10.63;8.43;;;;;;;3.61;71.01;100123.22;1767486;81;21110;-39
2021/12/14 07:36:04;;;;;;;11.93;7.67;;;;;;;3.59;70.91;100121.91;1767588;81;21511;-39
2021/12/14 07:38:44;;;;;;;9.85;7.92;;;;;;;3.58;70.90;100121.68;1767587;80;20961;-40
2021/12/14 07:41:23;;;;;;;12.05;8.30;;;;;;;3.56;70.78;100123.84;1767686;81;21008;-40
2021/12/14 07:44:01;;;;;;;11.38;8.43;;;;;;;3.56;70.77;100127.33;1767579;80;20973;-39
2021/12/14 07:46:48;;;;;;;11.60;8.98;;;;;;;3.59;70.65;100129.41;1767720;80;21095;-40
2021/12/14 07:49:29;;;;;;;13.80;9.53;;;;;;;3.59;70.64;100130.75;1767269;81;21814;-40
2021/12/14 07:52:16;;;;;;;12.20;9.23;;;;;;;3.54;70.73;100130.84;1767283;80;20976;-39
2021/12/14 07:54:46;;;;;;;13.30;10.00;;;;;;;3.53;70.83;100131.95;1767630;81;21017;-39
2021/12/14 07:57:16;;;;;;;;;;;;;;;3.49;70.79;100128.23;1770665;80;20991;-40
2021/12/14 07:59:48;;;;;;;13.13;10.28;;;;;;;3.45;70.81;100128.58;1775278;78;21133;-39
2021/12/14 08:02:26;;;;;;;13.80;8.98;;;;;;;3.33;71.04;100125.58;1799461;79;21018;-39
2021/12/14 08:05:24;;;;;;;14.65;10.68;;;;;;;3.37;71.16;100129.25;1794519;79;20911;-40
2021/12/14 08:08:19;;;;;;;14.00;10.82;;;;;;;3.43;71.17;100128.09;1790795;80;20973;-39
2021/12/14 08:11:08;;;;;;;14.10;11.43;;;;;;;3.43;71.26;100132.11;1790515;79;21472;-39
2021/12/14 08:13:26;;;;;;;16.37;12.13;;;;;;;3.44;71.18;100131.00;1789326;79;21107;-39
2021/12/14 08:15:59;;;;;;;19.62;12.63;;;;;;;3.44;71.16;100125.64;1790672;79;21020;-39
2021/12/14 08:18:32;;;;;;;14.78;10.85;;;;;;;3.45;70.99;100119.20;1790805;80;21005;-39
2021/12/14 08:21:10;;;;;;;12.40;9.85;;;;;;;3.43;70.92;100119.52;1789978;79;20966;-40
2021/12/14 08:23:41;;;;;;;12.30;9.65;;;;;;;3.50;70.92;100121.80;1790714;80;21124;-39
2021/12/14 08:26:15;;;;;;;15.00;10.78;;;;;;;3.55;70.84;100131.09;1790454;80;21433;-39
2021/12/14 08:29:01;;;;;;;14.40;9.60;;;;;;;3.59;70.92;100128.61;1790778;80;20957;-40
2021/12/14 08:31:45;;;;;;;15.53;10.18;;;;;;;3.62;70.83;100126.70;1790659;79;20993;-40
2021/12/14 08:34:19;;;;;;;13.48;10.13;;;;;;;3.62;70.75;100126.16;1790327;80;21005;-40
2021/12/14 08:36:52;;;;;;;13.48;9.50;;;;;;;3.64;70.81;100131.20;1789710;79;21025;-39
2021/12/14 08:39:23;;;;;;;13.80;9.48;;;;;;;3.66;70.80;100128.50;1790402;79;21096;-40
2021/12/14 08:41:59;;;;;;;11.45;8.48;;;;;;;3.73;70.58;100129.44;1790460;79;21507;-40
2021/12/14 08:44:36;;;;;;;10.40;8.28;;;;;;;3.78;70.31;100130.14;1789300;79;20922;-39
2021/12/14 08:47:00;;;;;;;10.88;8.60;;;;;;;3.82;70.10;100131.17;1790248;79;20966;-39
2021/12/14 08:49:26;;;;;;;13.85;9.45;;;;;;;3.81;70.22;100130.91;1790791;80;20965;-40
2021/12/14 08:51:53;;;;;;;13.43;9.53;;;;;;;3.82;70.19;100127.15;1790618;80;21142;-40
2021/12/14 08:54:26;;;;;;;12.35;9.63;;;;;;;3.82;70.24;100131.72;1790582;79;21018;-39
2021/12/14 08:57:13;;;;;;;13.53;9.78;;;;;;;3.84;70.26;100130.86;1790712;80;20962;-39
2021/12/14 08:59:43;;;;;;;13.38;9.95;;;;;;;3.81;70.31;100128.23;1791008;79;20993;-40
2021/12/14 09:02:12;;;;;;;13.48;8.93;;;;;;;3.83;70.22;100122.02;1790733;80;21495;-39
2021/12/14 09:04:58;;;;;;;11.30;8.75;;;;;;;3.90;70.19;100118.95;1790759;79;21162;-39
2021/12/14 09:07:28;;;;;;;14.58;10.30;;;;;;;3.94;70.18;100125.31;1787749;80;21028;-39
2021/12/14 09:09:55;;;;;;;17.65;12.03;;;;;;;3.97;70.20;100121.25;1790970;79;20985;-39
2021/12/14 09:12:27;;;;;;;17.60;11.57;;;;;;;3.98;70.04;100124.95;1790719;80;21622;-39
2021/12/14 09:14:56;;;;;;;15.65;11.03;;;;;;;3.97;69.95;100122.02;1790851;80;21077;-40
2021/12/14 09:17:23;;;;;;;20.68;12.50;;;;;;;3.94;69.86;100124.77;1790740;80;21107;-39
2021/12/14 09:19:55;;;;;;;16.87;11.43;;;;;;;3.88;69.84;100123.26;1790552;79;21057;-39
2021/12/14 09:22:32;;;;;;;14.45;9.68;;;;;;;3.83;70.10;100122.02;1790680;79;21481;-40
2021/12/14 09:25:00;;;;;;;15.72;10.08;;;;;;;3.83;70.00;100117.19;1790544;79;21038;-39
2021/12/14 09:27:29;;;;;;;12.15;9.15;;;;;;;3.86;70.08;100126.80;1790502;80;21658;-39
2021/12/14 09:29:56;;;;;;;13.65;9.15;;;;;;;3.88;70.20;100119.78;1790954;80;21844;-40
2021/12/14 09:32:27;;;;;;;15.03;9.95;;;;;;;3.84;70.15;100119.58;1790503;79;20946;-39
2021/12/14 09:34:53;;;;;;;14.18;10.08;;;;;;;3.85;70.16;100125.75;1790710;79;21023;-40
2021/12/14 09:37:20;;;;;;;16.97;10.93;;;;;;;3.86;70.27;100129.48;1790490;79;21479;-40
2021/12/14 09:39:52;;;;;;;15.68;11.35;;;;;;;3.86;70.18;100128.14;1790624;80;21029;-40
2021/12/14 09:42:23;;;;;;;17.32;11.83;;;;;;;3.84;70.26;100118.24;1790669;80;21828;-39
2021/12/14 09:44:52;;;;;;;16.00;11.45;;;;;;;3.83;70.10;100113.97;1790099;79;20922;-40
2021/12/14 09:47:26;;;;;;;16.30;11.80;;;;;;;3.83;70.14;100115.30;1790563;80;21704;-40
2021/12/14 09:49:53;;;;;;;15.28;11.70;;;;;;;3.86;70.33;100112.59;1790925;80;21009;-40
2021/12/14 09:52:25;;;;;;;18.10;11.80;;;;;;;3.89;70.53;100114.13;1790855;80;21095;-40
2021/12/14 09:54:52;;;;;;;17.20;11.60;;;;;;;3.93;70.44;100111.64;1790445;79;21173;-39
2021/12/14 09:57:27;;;;;;;16.35;11.95;;;;;;;3.98;70.37;100120.14;1790685;80;20923;-39
2021/12/14 09:59:55;;;;;;;17.35;10.75;;;;;;;3.97;70.32;100117.23;1790884;80;21005;-39
2021/12/14 10:02:32;;;;;;;15.45;11.10;;;;;;;3.92;70.06;100114.87;1790837;79;20969;-40
2021/12/14 10:05:13;;;;;;;15.50;10.55;;;;;;;3.88;70.17;100114.41;1792735;79;21079;-40
2021/12/14 10:07:39;;;;;;;17.90;11.68;;;;;;;3.88;70.19;100105.83;1788260;79;22359;-39
2021/12/14 10:10:10;;;;;;;18.12;12.70;;;;;;;3.92;70.18;100096.09;1798930;79;20941;-40
2021/12/14 10:12:51;;;;;;;17.25;11.93;;;;;;;3.94;70.35;100093.12;1799156;78;21049;-39
2021/12/14 10:15:35;;;;;;;18.80;12.28;;;;;;;3.94;70.10;100095.26;1799075;79;20961;-39
2021/12/14 10:18:16;;;;;;;18.00;12.00;;;;;;;3.86;70.20;100097.30;1799259;79;21069;-39
2021/12/14 10:20:51;;;;;;;17.20;11.83;;;;;;;3.79;70.34;100093.40;1799066;79;21058;-40
2021/12/14 10:23:19;;;;;;;17.57;11.38;;;;;;;3.73;70.51;100098.05;1799102;79;21024;-40
2021/12/14 10:25:46;;;;;;;15.95;11.00;;;;;;;3.67;70.53;100104.63;1799179;79;21495;-40
2021/12/14 10:28:13;;;;;;;16.25;10.95;;;;;;;3.71;70.75;100104.27;1799067;79;21491;-40
2021/12/14 10:30:54;;;;;;;16.70;10.88;;;;;;;3.77;70.69;100103.10;1799025;79;21029;-40
2021/12/14 10:33:21;;;;;;;17.10;11.90;;;;;;;3.79;70.71;100100.10;1799356;79;21138;-40
2021/12/14 10:35:53;;;;;;;17.92;11.25;;;;;;;3.79;70.66;100097.42;1799018;79;21013;-41
2021/12/14 10:38:30;;;;;;;18.90;12.25;;;;;;;3.75;70.52;100095.89;1799180;79;20939;-40
2021/12/14 10:43:54;;;;;;;17.62;11.15;;;;;;;3.64;70.72;100091.78;1799140;79;21502;-40
2021/12/14 10:46:34;;;;;;;20.82;12.78;;;;;;;3.63;70.68;100095.55;1799083;79;21786;-40
2021/12/14 10:49:01;;;;;;;18.57;11.22;;;;;;;3.68;70.67;100091.44;1798143;79;20986;-40
2021/12/14 10:51:32;;;;;;;20.70;12.35;;;;;;;3.67;70.67;100091.76;1799310;78;20996;-40
2021/12/14 10:54:00;;;;;;;21.10;12.58;;;;;;;3.66;70.72;100083.45;1798858;79;21543;-40
2021/12/14 10:56:31;;;;;;;24.60;13.72;;;;;;;3.65;70.75;100089.36;1799110;79;21021;-40
2021/12/14 10:59:00;;;;;;;26.62;15.05;;;;;;;3.62;70.83;100087.28;1798993;79;21189;-40
2021/12/14 11:01:33;;;;;;;25.12;14.68;;;;;;;3.60;70.85;100084.63;1799025;79;20969;-40
2021/12/14 11:04:11;;;;;;;22.05;12.73;;;;;;;3.61;70.92;100081.66;1798966;79;20972;-40
2021/12/14 11:06:42;;;;;;;24.12;14.07;;;;;;;3.66;70.90;100077.55;1799296;79;21564;-40
2021/12/14 11:11:51;;;;;;;24.90;14.70;;;;;;;3.76;70.95;100076.03;1799315;79;21938;-40
2021/12/14 11:14:23;;;;;;;31.68;15.45;;;;;;;3.77;70.76;100074.94;1793966;79;21499;-40
2021/12/14 11:19:57;;;;;;;30.70;16.50;;;;;;;3.73;70.51;100063.73;1799050;78;21500;-40
2021/12/14 11:22:32;;;;;;;29.52;16.20;;;;;;;3.64;70.47;100073.02;1799327;79;21391;-40
2021/12/14 11:25:04;;;;;;;28.27;16.65;;;;;;;3.60;70.72;100069.88;1798941;79;21346;-40
2021/12/14 11:28:02;;;;;;;26.30;16.02;;;;;;;3.67;70.86;100075.67;1799084;79;21892;-40
2021/12/14 11:30:37;;;;;;;29.45;16.65;;;;;;;3.69;70.85;100076.95;1797854;79;21025;-40
2021/12/14 11:33:17;;;;;;;32.08;17.45;;;;;;;3.65;70.82;100071.94;1799082;79;20922;-40
2021/12/14 11:36:14;;;;;;;33.02;17.15;;;;;;;3.63;70.89;100074.10;1799201;78;21060;-40
2021/12/14 11:38:53;;;;;;;32.48;16.67;;;;;;;3.61;70.98;100073.63;1798996;79;21114;-40
2021/12/14 11:41:44;;;;;;;33.08;16.90;;;;;;;3.59;71.23;100073.65;1799371;78;21312;-40
2021/12/14 11:44:22;;;;;;;30.68;16.62;;;;;;;3.63;71.06;100070.08;1799003;79;21197;-40
2021/12/14 11:47:41;;;;;;;27.87;16.37;;;;;;;3.67;71.07;100075.67;1799158;79;21005;-40
2021/12/14 11:49:55;;;;;;;32.30;17.87;;;;;;;3.68;71.13;100074.02;1794761;79;21025;-40
2021/12/14 11:52:51;;;;;;;33.63;18.27;;;;;;;3.70;71.27;100071.84;1799116;79;21511;-40
2021/12/14 11:55:54;;;;;;;32.85;17.35;;;;;;;3.69;71.21;100075.61;1798952;79;20953;-40
2021/12/14 11:58:38;;;;;;;34.78;17.55;;;;;;;3.67;70.98;100079.15;1799039;78;21076;-40
2021/12/14 12:01:32;;;;;;;32.28;16.27;;;;;;;3.55;71.16;100082.84;1798906;79;21037;-40
2021/12/14 12:04:12;;;;;;;26.85;15.53;;;;;;;3.52;71.31;100078.62;1799115;78;21783;-40
2021/12/14 12:09:28;;;;;;;28.55;16.20;;;;;;;3.57;71.25;100080.67;1792533;79;21516;-40
2021/12/14 12:09:33;;;;;;;29.40;16.50;;;;;;;3.59;71.47;100079.81;1787127;80;20962;-40
2021/12/14 12:12:17;;;;;;;28.02;16.85;;;;;;;3.63;71.44;100079.47;1790640;79;21009;-40
2021/12/14 12:15:10;;;;;;;28.60;16.50;;;;;;;3.64;71.39;100079.72;1781899;79;21487;-40
2021/12/14 12:17:42;;;;;;;27.98;16.37;;;;;;;3.62;71.27;100083.80;1790858;79;21445;-40
2021/12/14 12:20:28;;;;;;;28.57;15.85;;;;;;;3.59;71.39;100079.81;1790663;79;21108;-40
2021/12/14 12:23:00;;;;;;;29.12;15.65;;;;;;;3.66;71.41;100086.94;1790482;79;21566;-40
2021/12/14 12:25:49;;;;;;;28.30;14.23;;;;;;;3.75;71.26;100079.80;1790631;80;20929;-40
2021/12/14 12:28:20;;;;;;;30.85;16.62;;;;;;;3.82;71.10;100081.55;1774000;80;21011;-40
2021/12/14 12:31:00;;;;;;;33.63;19.17;;;;;;;3.86;70.92;100087.91;1786116;79;21076;-40
2021/12/14 12:33:44;;;;;;;35.23;19.65;;;;;;;3.89;70.83;100084.63;1791040;79;21115;-40
2021/12/14 12:36:24;;;;;;;34.67;17.25;;;;;;;3.90;70.93;100090.78;1790544;80;21017;-40
2021/12/14 12:38:56;;;;;;;32.85;18.40;;;;;;;3.85;70.66;100078.27;1790932;80;21009;-40
2021/12/14 12:41:47;;;;;;;32.85;17.82;;;;;;;3.79;70.84;100078.11;1790751;79;21798;-40